createdAt,value
2019-05-01T00:02:08.255Z,4.42
2019-05-01T00:04:57.882Z,4.45
2019-05-01T00:07:33.786Z,4.60
2019-05-01T00:10:03.603Z,4.55
2019-05-01T00:12:32.369Z,5.10
2019-05-01T00:15:01.278Z,5.42
2019-05-01T00:17:30.457Z,6.17
2019-05-01T00:19:59.295Z,5.12
2019-05-01T00:22:28.090Z,5.95
2019-05-01T00:24:56.791Z,4.70
2019-05-01T00:27:26.194Z,4.95
2019-05-01T00:29:54.902Z,5.78
2019-05-01T00:32:25.471Z,5.35
2019-05-01T00:34:54.308Z,5.10
2019-05-01T00:37:23.165Z,5.97
2019-05-01T00:39:52.226Z,6.08
2019-05-01T00:42:21.146Z,6.40
2019-05-01T00:44:50.126Z,6.43
2019-05-01T00:47:19.154Z,6.28
2019-05-01T00:49:48.381Z,7.00
2019-05-01T00:52:17.312Z,6.87
2019-05-01T00:54:47.931Z,6.80
2019-05-01T00:57:26.343Z,6.85
2019-05-01T01:00:11.577Z,6.47
2019-05-01T01:02:43.628Z,6.78
2019-05-01T01:05:12.461Z,6.97
2019-05-01T01:07:41.354Z,6.62
2019-05-01T01:10:10.246Z,7.62
2019-05-01T01:12:39.164Z,7.75
2019-05-01T01:15:08.320Z,13.70
2019-05-01T01:17:37.650Z,16.47
2019-05-01T01:20:06.709Z,8.78
2019-05-01T01:22:35.850Z,8.78
2019-05-01T01:25:05.747Z,13.15
2019-05-01T01:27:34.943Z,15.35
2019-05-01T01:30:04.643Z,10.08
2019-05-01T01:32:33.437Z,9.53
2019-05-01T01:35:02.639Z,9.28
2019-05-01T01:37:31.459Z,9.43
2019-05-01T01:40:00.565Z,9.78
2019-05-01T01:42:30.184Z,10.48
2019-05-01T01:45:10.299Z,9.13
2019-05-01T01:47:58.401Z,9.20
2019-05-01T01:50:27.354Z,9.90
2019-05-01T01:52:56.314Z,10.00
2019-05-01T01:55:25.645Z,10.13
2019-05-01T01:57:54.921Z,11.40
2019-05-01T02:00:32.641Z,10.58
2019-05-01T02:03:03.813Z,11.37
2019-05-01T02:05:35.613Z,10.00
2019-05-01T02:08:04.456Z,9.10
2019-05-01T02:10:42.648Z,10.72
2019-05-01T02:13:05.205Z,10.95
2019-05-01T02:15:33.989Z,10.70
2019-05-01T02:18:02.769Z,11.35
2019-05-01T02:20:31.552Z,11.17
2019-05-01T02:23:00.478Z,11.28
2019-05-01T02:25:30.339Z,10.32
2019-05-01T02:28:33.694Z,12.30
2019-05-01T02:31:28.170Z,11.93
2019-05-01T02:33:52.938Z,11.75
2019-05-01T02:36:23.587Z,11.95
2019-05-01T02:38:54.541Z,11.93
2019-05-01T02:41:25.299Z,12.35
2019-05-01T02:43:57.988Z,12.25
2019-05-01T02:46:29.343Z,12.50
2019-05-01T02:49:05.413Z,12.80
2019-05-01T02:51:35.456Z,12.85
2019-05-01T02:54:04.433Z,13.37
2019-05-01T02:56:40.025Z,14.33
2019-05-01T02:59:10.599Z,13.30
2019-05-01T03:01:46.966Z,13.90
2019-05-01T03:04:11.712Z,13.30
2019-05-01T03:06:40.907Z,14.53
2019-05-01T03:09:09.902Z,13.85
2019-05-01T03:11:41.006Z,13.60
2019-05-01T03:14:15.622Z,15.10
2019-05-01T03:16:45.441Z,14.20
2019-05-01T03:19:26.318Z,14.33
2019-05-01T03:22:00.498Z,13.95
2019-05-01T03:24:29.438Z,13.80
2019-05-01T03:26:59.082Z,13.93
2019-05-01T03:29:28.141Z,14.28
2019-05-01T03:32:15.996Z,15.18
2019-05-01T03:34:28.907Z,14.45
2019-05-01T03:36:57.959Z,14.43
2019-05-01T03:39:27.353Z,14.98
2019-05-01T03:41:57.028Z,13.95
2019-05-01T03:44:25.960Z,14.67
2019-05-01T03:46:54.874Z,14.05
2019-05-01T03:49:23.896Z,16.02
2019-05-01T03:51:52.810Z,15.38
2019-05-01T03:54:21.941Z,15.03
2019-05-01T03:56:51.580Z,15.55
2019-05-01T03:59:20.750Z,16.05
2019-05-01T04:02:06.303Z,15.40
2019-05-01T04:04:35.436Z,16.20
2019-05-01T04:07:04.400Z,16.27
2019-05-01T04:09:33.550Z,17.32
2019-05-01T04:12:02.764Z,16.40
2019-05-01T04:14:32.821Z,16.27
2019-05-01T04:17:11.712Z,16.02
2019-05-01T04:19:40.634Z,16.23
2019-05-01T04:22:12.310Z,15.45
2019-05-01T04:24:42.062Z,16.85
2019-05-01T04:27:15.217Z,17.73
2019-05-01T04:29:54.507Z,16.97
2019-05-01T04:32:26.082Z,18.07
2019-05-01T04:35:23.501Z,16.70
2019-05-01T04:37:54.578Z,18.83
2019-05-01T04:41:11.022Z,19.30
2019-05-01T04:43:51.428Z,20.00
2019-05-01T04:46:32.741Z,21.35
2019-05-01T04:49:13.859Z,19.77
2019-05-01T04:51:54.427Z,18.02
2019-05-01T04:57:15.933Z,18.75
2019-05-01T05:06:10.734Z,18.82
2019-05-01T05:08:58.874Z,19.77
2019-05-01T05:18:04.531Z,20.60
2019-05-01T05:20:52.469Z,21.15
2019-05-01T05:26:34.014Z,20.80
2019-05-01T05:29:42.712Z,20.17
2019-05-01T05:32:51.344Z,19.17
2019-05-01T05:35:59.935Z,19.87
2019-05-01T05:42:21.303Z,19.60
2019-05-01T05:45:09.644Z,19.82
2019-05-01T05:51:12.570Z,20.45
2019-05-01T05:54:05.608Z,21.27
2019-05-01T06:10:13.794Z,20.55
2019-05-01T06:16:23.624Z,21.23
2019-05-01T06:25:32.873Z,19.92
2019-05-01T06:28:13.306Z,21.57
2019-05-01T06:33:59.092Z,21.37
2019-05-01T06:36:44.230Z,21.40
2019-05-01T06:39:22.046Z,21.73
2019-05-01T06:42:02.836Z,22.30
2019-05-01T06:47:56.601Z,22.00
2019-05-01T06:53:52.170Z,21.52
2019-05-01T06:56:32.738Z,22.45
2019-05-01T06:59:13.495Z,23.92
2019-05-01T07:01:58.365Z,23.05
2019-05-01T07:04:37.744Z,22.77
2019-05-01T07:07:25.292Z,22.27
2019-05-01T07:10:01.622Z,22.03
2019-05-01T07:12:50.053Z,21.57
2019-05-01T07:15:38.038Z,24.00
2019-05-01T07:18:29.108Z,22.17
2019-05-01T07:24:10.728Z,24.12
2019-05-01T07:32:49.676Z,23.87
2019-05-01T07:35:38.265Z,21.80
2019-05-01T07:41:20.107Z,23.40
2019-05-01T07:44:29.970Z,25.07
2019-05-01T07:47:30.377Z,25.12
2019-05-01T07:50:36.716Z,22.75
2019-05-01T07:53:28.363Z,23.12
2019-05-01T08:02:42.383Z,21.50
2019-05-01T08:08:23.819Z,22.95
2019-05-01T08:14:07.557Z,22.37
2019-05-01T08:16:56.138Z,21.48
2019-05-01T08:26:29.941Z,21.30
2019-05-01T08:29:41.807Z,22.42
2019-05-01T08:32:45.859Z,21.95
2019-05-01T08:38:23.616Z,21.82
2019-05-01T08:41:11.573Z,22.62
2019-05-01T08:43:59.569Z,22.35
2019-05-01T08:47:06.598Z,22.27
2019-05-01T08:50:14.058Z,21.65
2019-05-01T08:56:09.848Z,21.80
2019-05-01T08:58:58.761Z,19.95
2019-05-01T09:04:40.477Z,20.32
2019-05-01T09:10:23.218Z,19.32
2019-05-01T09:13:04.280Z,20.40
2019-05-01T09:15:48.341Z,19.10
2019-05-01T09:18:27.811Z,20.30
2019-05-01T09:21:08.215Z,18.62
2019-05-01T09:23:51.577Z,18.27
2019-05-01T09:29:41.855Z,18.62
2019-05-01T09:32:22.338Z,17.42
2019-05-01T09:35:15.133Z,17.85
2019-05-01T09:37:45.593Z,18.65
2019-05-01T09:40:26.075Z,17.40
2019-05-01T09:43:07.165Z,17.60
2019-05-01T09:45:48.328Z,16.57
2019-05-01T09:48:29.418Z,17.07
2019-05-01T09:57:11.907Z,17.05
2019-05-01T09:59:52.342Z,16.75
2019-05-01T10:02:33.498Z,16.95
2019-05-01T10:05:14.583Z,17.07
2019-05-01T10:07:53.792Z,16.95
2019-05-01T10:10:44.050Z,16.90
2019-05-01T10:19:18.749Z,15.70
2019-05-01T10:22:06.769Z,16.17
2019-05-01T10:31:46.867Z,16.55
2019-05-01T10:34:44.574Z,16.82
2019-05-01T10:37:13.395Z,14.83
2019-05-01T10:40:01.389Z,14.65
2019-05-01T10:45:43.286Z,13.85
2019-05-01T10:48:31.778Z,14.57
2019-05-01T10:51:19.726Z,13.72
2019-05-01T10:54:11.673Z,13.98
2019-05-01T10:57:03.450Z,14.28
2019-05-01T11:05:38.614Z,13.22
2019-05-01T11:11:12.641Z,12.28
2019-05-01T11:13:52.973Z,13.93
2019-05-01T11:16:33.999Z,13.30
2019-05-01T11:19:14.505Z,12.82
2019-05-01T11:21:55.267Z,11.80
2019-05-01T11:24:36.391Z,11.53
2019-05-01T11:27:17.457Z,12.03
2019-05-01T11:29:58.142Z,11.93
2019-05-01T11:42:12.316Z,10.80
2019-05-01T11:44:53.384Z,10.10
2019-05-01T11:47:34.302Z,10.50
2019-05-01T11:50:14.829Z,10.68
2019-05-01T11:52:56.600Z,10.08
2019-05-01T11:55:37.355Z,10.20
2019-05-01T11:58:18.639Z,10.60
2019-05-01T12:01:01.365Z,10.13
2019-05-01T12:03:42.142Z,9.63
2019-05-01T12:06:23.391Z,10.13
2019-05-01T12:09:05.357Z,9.50
2019-05-01T12:11:48.325Z,10.32
2019-05-01T12:14:29.372Z,9.43
2019-05-01T12:20:24.436Z,9.43
2019-05-01T12:23:05.254Z,9.20
2019-05-01T12:25:46.435Z,8.73
2019-05-01T12:31:46.270Z,9.17
2019-05-01T12:37:28.427Z,8.98
2019-05-01T12:40:09.274Z,9.48
2019-05-01T12:42:50.057Z,8.73
2019-05-01T12:45:31.183Z,8.65
2019-05-01T12:48:11.652Z,8.30
2019-05-01T12:50:52.631Z,8.93
2019-05-01T12:56:38.108Z,8.90
2019-05-01T12:59:19.321Z,9.70
2019-05-01T13:02:00.369Z,9.23
2019-05-01T13:07:22.638Z,8.60
2019-05-01T13:10:03.683Z,8.83
2019-05-01T13:12:44.994Z,8.33
2019-05-01T13:15:26.029Z,7.97
2019-05-01T13:18:05.287Z,8.40
2019-05-01T13:20:53.783Z,7.83
2019-05-01T13:23:41.814Z,7.53
2019-05-01T13:26:48.858Z,7.20
2019-05-01T13:29:56.081Z,7.72
2019-05-01T13:33:03.122Z,6.77
2019-05-01T13:35:51.320Z,8.28
2019-05-01T13:38:53.870Z,7.85
2019-05-01T13:44:23.422Z,7.80
2019-05-01T13:50:05.930Z,6.87
2019-05-01T13:53:12.741Z,7.08
2019-05-01T13:56:00.714Z,6.10
2019-05-01T13:58:48.043Z,6.47
2019-05-01T14:02:11.902Z,6.25
2019-05-01T14:11:41.322Z,4.65
2019-05-01T14:14:18.905Z,6.17
2019-05-01T14:17:07.150Z,4.85
2019-05-01T14:22:48.563Z,5.37
2019-05-01T14:25:48.203Z,5.50
2019-05-01T14:28:30.946Z,4.72
2019-05-01T14:31:11.437Z,9.00
2019-05-01T14:37:01.683Z,7.20
2019-05-01T14:43:01.400Z,5.80
2019-05-01T14:45:49.645Z,4.53
2019-05-01T14:54:56.797Z,4.73
2019-05-01T14:57:35.453Z,4.20
2019-05-01T15:00:23.665Z,4.28
2019-05-01T15:03:11.605Z,4.12
2019-05-01T15:05:59.594Z,4.05
2019-05-01T15:08:47.571Z,4.37
2019-05-01T15:14:53.011Z,3.70
2019-05-01T15:18:00.137Z,7.35
2019-05-01T15:23:53.096Z,4.12
2019-05-01T15:26:32.012Z,3.62
2019-05-01T15:32:13.637Z,3.70
2019-05-01T15:35:01.827Z,3.58
2019-05-01T15:37:56.792Z,3.60
2019-05-01T15:44:02.586Z,3.63
2019-05-01T15:46:43.405Z,2.83
2019-05-01T15:49:24.194Z,2.90
2019-05-01T15:52:05.281Z,3.02
2019-05-01T15:54:46.522Z,3.47
2019-05-01T15:57:27.493Z,4.20
2019-05-01T16:00:08.835Z,3.85
2019-05-01T16:02:50.150Z,2.58
2019-05-01T16:05:31.281Z,2.62
2019-05-01T16:08:12.032Z,3.02
2019-05-01T16:13:49.239Z,2.85
2019-05-01T16:16:30.262Z,2.67
2019-05-01T16:19:10.774Z,2.33
2019-05-01T16:21:51.806Z,2.55
2019-05-01T16:24:31.981Z,2.25
2019-05-01T16:39:33.883Z,2.63
2019-05-01T16:48:22.440Z,2.50
2019-05-01T16:51:10.501Z,2.70
2019-05-01T16:53:58.454Z,3.25
2019-05-01T16:56:46.018Z,2.77
2019-05-01T16:59:34.033Z,3.43
2019-05-01T17:02:41.301Z,2.70
2019-05-01T17:05:48.481Z,2.08
2019-05-01T17:08:56.011Z,2.33
2019-05-01T17:14:52.914Z,1.92
2019-05-01T17:17:40.857Z,2.52
2019-05-01T17:26:09.031Z,2.52
2019-05-01T17:28:49.795Z,2.30
2019-05-01T17:31:30.774Z,2.50
2019-05-01T17:34:11.578Z,2.20
2019-05-01T17:36:52.644Z,2.30
2019-05-01T17:39:33.268Z,2.70
2019-05-01T17:42:14.312Z,2.35
2019-05-01T17:44:55.957Z,2.22
2019-05-01T17:47:37.802Z,1.95
2019-05-01T17:50:21.138Z,2.08
2019-05-01T17:53:01.583Z,2.53
2019-05-01T17:55:42.282Z,2.27
2019-05-01T17:58:23.702Z,2.47
2019-05-01T18:01:27.938Z,3.12
2019-05-01T18:07:01.039Z,2.35
2019-05-01T18:09:41.689Z,2.35
2019-05-01T18:12:23.461Z,2.05
2019-05-01T18:15:03.981Z,1.90
2019-05-01T18:17:52.048Z,7.12
2019-05-01T18:20:40.130Z,2.58
2019-05-01T18:23:49.415Z,2.30
2019-05-01T18:26:56.421Z,2.42
2019-05-01T18:35:37.565Z,2.83
2019-05-01T18:38:47.601Z,2.37
2019-05-01T18:41:54.164Z,2.50
2019-05-01T18:47:50.862Z,3.00
2019-05-01T18:54:22.968Z,3.80
2019-05-01T19:03:13.997Z,3.47
2019-05-01T19:06:02.040Z,5.83
2019-05-01T19:08:50.214Z,4.17
2019-05-01T19:11:38.322Z,4.22
2019-05-01T19:14:28.844Z,3.80
2019-05-01T19:17:08.922Z,3.40
2019-05-01T19:19:48.994Z,4.30
2019-05-01T19:26:10.572Z,4.20
2019-05-01T19:28:58.631Z,4.45
2019-05-01T19:31:46.678Z,4.60
2019-05-01T19:34:34.622Z,7.40
2019-05-01T19:37:23.979Z,4.40
2019-05-01T19:46:49.438Z,4.15
2019-05-01T19:52:32.437Z,4.26
2019-05-01T19:55:21.336Z,4.28
2019-05-01T19:58:09.359Z,5.55
2019-05-01T20:04:30.104Z,4.72
2019-05-01T20:11:03.795Z,4.45
2019-05-01T20:13:52.061Z,4.72
2019-05-01T20:23:00.044Z,4.35
2019-05-01T20:28:41.632Z,4.53
2019-05-01T20:31:32.593Z,4.35
2019-05-01T20:34:19.380Z,3.95
2019-05-01T20:37:07.413Z,4.10
2019-05-01T20:39:55.426Z,3.90
2019-05-01T20:42:43.655Z,4.40
2019-05-01T20:45:34.563Z,4.60
2019-05-01T20:48:25.164Z,4.65
2019-05-01T20:51:14.001Z,4.37
2019-05-01T20:59:58.242Z,4.22
2019-05-01T21:02:27.001Z,4.62
2019-05-01T21:08:34.307Z,4.47
2019-05-01T21:17:26.718Z,5.15
2019-05-01T21:23:10.620Z,3.83
2019-05-01T21:25:51.053Z,4.95
2019-05-01T21:28:33.929Z,3.87
2019-05-01T21:31:13.805Z,4.65
2019-05-01T21:34:04.035Z,4.67
2019-05-01T21:39:46.490Z,3.85
2019-05-01T21:42:34.467Z,4.60
2019-05-01T21:45:23.040Z,4.45
2019-05-01T21:51:45.896Z,4.13
2019-05-01T21:54:31.659Z,4.53
2019-05-01T21:57:19.610Z,4.20
2019-05-01T22:00:09.102Z,4.60
2019-05-01T22:02:57.132Z,5.13
2019-05-01T22:05:45.125Z,5.53
2019-05-01T22:35:21.317Z,5.60
2019-05-01T22:38:09.532Z,5.87
2019-05-01T22:49:59.687Z,6.77
2019-05-01T22:52:47.691Z,5.25
2019-05-01T22:55:35.667Z,5.83
2019-05-01T22:58:23.978Z,6.17
2019-05-01T23:04:11.995Z,7.12
2019-05-01T23:06:57.978Z,7.35
2019-05-01T23:12:39.009Z,6.70
2019-05-01T23:21:16.219Z,7.08
2019-05-01T23:24:04.641Z,7.67
2019-05-01T23:26:53.035Z,7.12
2019-05-01T23:29:42.272Z,6.70
2019-05-01T23:32:30.768Z,7.28
2019-05-01T23:35:11.089Z,7.77
2019-05-01T23:37:51.461Z,8.03
2019-05-01T23:40:32.606Z,7.77
2019-05-01T23:43:13.886Z,7.97
2019-05-01T23:45:53.118Z,7.65
2019-05-01T23:48:41.061Z,7.40
2019-05-01T23:51:29.916Z,7.07
2019-05-01T23:54:19.047Z,7.17
2019-05-01T23:57:06.994Z,7.57
2019-05-01T23:59:55.209Z,7.67
